sensor_id;sensor_type;location;lat;lon;timestamp;P1;durP1;ratioP1;P2;durP2;ratioP2
34585;SDS011;20816;50.950;11.108;2023-05-10T00:00:32;1.67;;;1.20;;
34585;SDS011;20816;50.950;11.108;2023-05-10T00:02:58;1.90;;;1.30;;
34585;SDS011;20816;50.950;11.108;2023-05-10T00:05:25;2.60;;;1.73;;
34585;SDS011;20816;50.950;11.108;2023-05-10T00:07:52;4.30;;;1.17;;
34585;SDS011;20816;50.950;11.108;2023-05-10T00:10:18;1.73;;;1.43;;
34585;SDS011;20816;50.950;11.108;2023-05-10T00:12:45;1.43;;;0.97;;
34585;SDS011;20816;50.950;11.108;2023-05-10T00:15:11;3.03;;;1.23;;
34585;SDS011;20816;50.950;11.108;2023-05-10T00:17:38;1.20;;;0.80;;
34585;SDS011;20816;50.950;11.108;2023-05-10T00:20:05;2.70;;;1.30;;
34585;SDS011;20816;50.950;11.108;2023-05-10T00:22:32;3.10;;;1.63;;
34585;SDS011;20816;50.950;11.108;2023-05-10T00:24:59;1.00;;;0.90;;
34585;SDS011;20816;50.950;11.108;2023-05-10T00:27:26;1.60;;;1.13;;
34585;SDS011;20816;50.950;11.108;2023-05-10T00:29:52;3.07;;;2.33;;
34585;SDS011;20816;50.950;11.108;2023-05-10T00:32:19;1.20;;;1.10;;
34585;SDS011;20816;50.950;11.108;2023-05-10T00:34:46;2.13;;;1.00;;
34585;SDS011;20816;50.950;11.108;2023-05-10T00:37:12;3.57;;;1.67;;
34585;SDS011;20816;50.950;11.108;2023-05-10T00:39:39;1.77;;;1.20;;
34585;SDS011;20816;50.950;11.108;2023-05-10T00:42:06;1.67;;;1.20;;
34585;SDS011;20816;50.950;11.108;2023-05-10T00:44:32;1.30;;;0.90;;
34585;SDS011;20816;50.950;11.108;2023-05-10T00:46:59;2.90;;;1.40;;
34585;SDS011;20816;50.950;11.108;2023-05-10T00:49:26;2.73;;;1.30;;
34585;SDS011;20816;50.950;11.108;2023-05-10T00:51:53;1.90;;;1.27;;
34585;SDS011;20816;50.950;11.108;2023-05-10T00:54:20;1.40;;;1.30;;
34585;SDS011;20816;50.950;11.108;2023-05-10T00:56:47;7.40;;;1.50;;
34585;SDS011;20816;50.950;11.108;2023-05-10T00:59:18;3.00;;;1.30;;
34585;SDS011;20816;50.950;11.108;2023-05-10T01:01:45;7.83;;;1.40;;
34585;SDS011;20816;50.950;11.108;2023-05-10T01:04:13;4.33;;;1.70;;
34585;SDS011;20816;50.950;11.108;2023-05-10T01:06:41;6.13;;;1.67;;
34585;SDS011;20816;50.950;11.108;2023-05-10T01:09:08;4.27;;;1.30;;
34585;SDS011;20816;50.950;11.108;2023-05-10T01:11:35;1.57;;;1.20;;
34585;SDS011;20816;50.950;11.108;2023-05-10T01:14:04;2.30;;;1.17;;
34585;SDS011;20816;50.950;11.108;2023-05-10T01:16:32;1.40;;;1.30;;
34585;SDS011;20816;50.950;11.108;2023-05-10T01:19:07;1.40;;;1.17;;
34585;SDS011;20816;50.950;11.108;2023-05-10T01:21:51;3.17;;;1.27;;
34585;SDS011;20816;50.950;11.108;2023-05-10T01:35:31;1.97;;;1.20;;
34585;SDS011;20816;50.950;11.108;2023-05-10T01:40:48;8.97;;;1.77;;
34585;SDS011;20816;50.950;11.108;2023-05-10T01:43:32;3.20;;;1.50;;
34585;SDS011;20816;50.950;11.108;2023-05-10T01:46:10;2.03;;;1.67;;
34585;SDS011;20816;50.950;11.108;2023-05-10T01:49:02;3.07;;;0.90;;
34585;SDS011;20816;50.950;11.108;2023-05-10T01:51:38;1.47;;;1.20;;
34585;SDS011;20816;50.950;11.108;2023-05-10T01:54:11;2.27;;;1.10;;
34585;SDS011;20816;50.950;11.108;2023-05-10T01:56:39;2.10;;;1.57;;
34585;SDS011;20816;50.950;11.108;2023-05-10T01:59:09;1.73;;;1.37;;
34585;SDS011;20816;50.950;11.108;2023-05-10T02:01:39;3.97;;;1.77;;
34585;SDS011;20816;50.950;11.108;2023-05-10T02:04:07;2.47;;;1.30;;
34585;SDS011;20816;50.950;11.108;2023-05-10T02:06:35;1.60;;;1.30;;
34585;SDS011;20816;50.950;11.108;2023-05-10T02:09:04;2.00;;;1.27;;
34585;SDS011;20816;50.950;11.108;2023-05-10T02:11:33;3.97;;;1.60;;
34585;SDS011;20816;50.950;11.108;2023-05-10T02:13:59;2.00;;;1.07;;
34585;SDS011;20816;50.950;11.108;2023-05-10T02:16:27;2.83;;;1.03;;
34585;SDS011;20816;50.950;11.108;2023-05-10T02:18:57;2.70;;;1.43;;
34585;SDS011;20816;50.950;11.108;2023-05-10T02:21:25;1.17;;;1.07;;
34585;SDS011;20816;50.950;11.108;2023-05-10T02:23:54;1.70;;;1.10;;
34585;SDS011;20816;50.950;11.108;2023-05-10T02:26:21;1.83;;;1.30;;
34585;SDS011;20816;50.950;11.108;2023-05-10T02:28:51;4.20;;;2.27;;
34585;SDS011;20816;50.950;11.108;2023-05-10T02:31:19;1.50;;;1.40;;
34585;SDS011;20816;50.950;11.108;2023-05-10T02:33:48;1.97;;;1.40;;
34585;SDS011;20816;50.950;11.108;2023-05-10T02:36:15;1.33;;;1.10;;
34585;SDS011;20816;50.950;11.108;2023-05-10T02:38:43;2.23;;;1.40;;
34585;SDS011;20816;50.950;11.108;2023-05-10T02:41:11;3.10;;;1.43;;
34585;SDS011;20816;50.950;11.108;2023-05-10T02:43:39;2.27;;;1.50;;
34585;SDS011;20816;50.950;11.108;2023-05-10T02:46:07;5.80;;;1.60;;
34585;SDS011;20816;50.950;11.108;2023-05-10T02:48:34;3.57;;;1.50;;
34585;SDS011;20816;50.950;11.108;2023-05-10T02:51:03;1.57;;;1.10;;
34585;SDS011;20816;50.950;11.108;2023-05-10T02:53:34;2.03;;;1.40;;
34585;SDS011;20816;50.950;11.108;2023-05-10T02:56:04;1.47;;;1.37;;
34585;SDS011;20816;50.950;11.108;2023-05-10T02:58:35;2.00;;;1.67;;
34585;SDS011;20816;50.950;11.108;2023-05-10T03:01:02;1.67;;;1.40;;
34585;SDS011;20816;50.950;11.108;2023-05-10T03:03:29;1.20;;;1.10;;
34585;SDS011;20816;50.950;11.108;2023-05-10T03:05:55;2.37;;;1.57;;
34585;SDS011;20816;50.950;11.108;2023-05-10T03:08:22;4.27;;;1.60;;
34585;SDS011;20816;50.950;11.108;2023-05-10T03:10:54;1.70;;;1.40;;
34585;SDS011;20816;50.950;11.108;2023-05-10T03:13:48;1.80;;;1.47;;
34585;SDS011;20816;50.950;11.108;2023-05-10T03:16:27;1.60;;;1.30;;
34585;SDS011;20816;50.950;11.108;2023-05-10T03:19:12;2.77;;;1.37;;
34585;SDS011;20816;50.950;11.108;2023-05-10T03:21:51;2.03;;;1.37;;
34585;SDS011;20816;50.950;11.108;2023-05-10T03:24:20;1.67;;;1.27;;
34585;SDS011;20816;50.950;11.108;2023-05-10T03:26:49;5.37;;;1.60;;
34585;SDS011;20816;50.950;11.108;2023-05-10T03:29:19;1.07;;;0.97;;
34585;SDS011;20816;50.950;11.108;2023-05-10T03:31:48;3.47;;;1.50;;
34585;SDS011;20816;50.950;11.108;2023-05-10T03:34:15;1.87;;;1.50;;
34585;SDS011;20816;50.950;11.108;2023-05-10T03:36:41;1.97;;;1.77;;
34585;SDS011;20816;50.950;11.108;2023-05-10T03:39:08;3.03;;;1.60;;
34585;SDS011;20816;50.950;11.108;2023-05-10T03:41:35;3.00;;;2.00;;
34585;SDS011;20816;50.950;11.108;2023-05-10T03:44:02;1.70;;;1.33;;
34585;SDS011;20816;50.950;11.108;2023-05-10T03:46:28;3.87;;;1.67;;
34585;SDS011;20816;50.950;11.108;2023-05-10T03:48:55;1.97;;;1.60;;
34585;SDS011;20816;50.950;11.108;2023-05-10T03:51:22;5.37;;;1.90;;
34585;SDS011;20816;50.950;11.108;2023-05-10T03:53:48;2.43;;;1.83;;
34585;SDS011;20816;50.950;11.108;2023-05-10T03:56:15;2.23;;;1.40;;
34585;SDS011;20816;50.950;11.108;2023-05-10T03:58:41;2.53;;;1.33;;
34585;SDS011;20816;50.950;11.108;2023-05-10T04:01:08;2.40;;;1.90;;
34585;SDS011;20816;50.950;11.108;2023-05-10T04:03:35;2.23;;;1.50;;
34585;SDS011;20816;50.950;11.108;2023-05-10T04:06:03;4.10;;;2.10;;
34585;SDS011;20816;50.950;11.108;2023-05-10T04:08:30;1.73;;;1.43;;
34585;SDS011;20816;50.950;11.108;2023-05-10T04:11:07;5.90;;;2.00;;
34585;SDS011;20816;50.950;11.108;2023-05-10T04:13:35;2.93;;;1.70;;
34585;SDS011;20816;50.950;11.108;2023-05-10T04:16:02;3.30;;;1.73;;
34585;SDS011;20816;50.950;11.108;2023-05-10T04:18:29;2.90;;;1.70;;
34585;SDS011;20816;50.950;11.108;2023-05-10T04:20:56;3.70;;;1.73;;
34585;SDS011;20816;50.950;11.108;2023-05-10T04:23:23;3.23;;;2.03;;
34585;SDS011;20816;50.950;11.108;2023-05-10T04:25:50;3.23;;;2.43;;
34585;SDS011;20816;50.950;11.108;2023-05-10T04:28:16;2.03;;;1.83;;
34585;SDS011;20816;50.950;11.108;2023-05-10T04:30:43;3.33;;;1.70;;
34585;SDS011;20816;50.950;11.108;2023-05-10T04:33:10;1.83;;;1.43;;
34585;SDS011;20816;50.950;11.108;2023-05-10T04:35:36;3.37;;;2.27;;
34585;SDS011;20816;50.950;11.108;2023-05-10T04:38:03;3.20;;;2.50;;
34585;SDS011;20816;50.950;11.108;2023-05-10T04:40:30;3.00;;;2.20;;
34585;SDS011;20816;50.950;11.108;2023-05-10T04:42:56;5.23;;;2.47;;
34585;SDS011;20816;50.950;11.108;2023-05-10T04:45:23;7.40;;;3.03;;
34585;SDS011;20816;50.950;11.108;2023-05-10T04:47:50;3.93;;;2.20;;
34585;SDS011;20816;50.950;11.108;2023-05-10T04:50:16;4.27;;;2.33;;
34585;SDS011;20816;50.950;11.108;2023-05-10T04:52:44;3.47;;;1.83;;
34585;SDS011;20816;50.950;11.108;2023-05-10T04:55:11;5.47;;;2.37;;
34585;SDS011;20816;50.950;11.108;2023-05-10T04:57:37;3.47;;;1.90;;
34585;SDS011;20816;50.950;11.108;2023-05-10T05:00:04;4.17;;;2.50;;
34585;SDS011;20816;50.950;11.108;2023-05-10T05:02:31;4.90;;;3.07;;
34585;SDS011;20816;50.950;11.108;2023-05-10T05:04:58;3.43;;;2.40;;
34585;SDS011;20816;50.950;11.108;2023-05-10T05:07:25;3.27;;;2.30;;
34585;SDS011;20816;50.950;11.108;2023-05-10T05:09:52;5.27;;;1.87;;
34585;SDS011;20816;50.950;11.108;2023-05-10T05:12:18;3.13;;;2.07;;
34585;SDS011;20816;50.950;11.108;2023-05-10T05:14:45;3.53;;;2.17;;
34585;SDS011;20816;50.950;11.108;2023-05-10T05:17:12;4.43;;;2.07;;
34585;SDS011;20816;50.950;11.108;2023-05-10T05:19:39;4.57;;;2.50;;
34585;SDS011;20816;50.950;11.108;2023-05-10T05:22:06;3.33;;;2.57;;
34585;SDS011;20816;50.950;11.108;2023-05-10T05:24:36;6.60;;;2.40;;
34585;SDS011;20816;50.950;11.108;2023-05-10T05:27:05;3.93;;;2.43;;
34585;SDS011;20816;50.950;11.108;2023-05-10T05:29:32;3.17;;;2.33;;
34585;SDS011;20816;50.950;11.108;2023-05-10T05:31:59;3.20;;;2.20;;
34585;SDS011;20816;50.950;11.108;2023-05-10T05:34:26;4.70;;;2.10;;
34585;SDS011;20816;50.950;11.108;2023-05-10T05:36:55;3.40;;;2.57;;
34585;SDS011;20816;50.950;11.108;2023-05-10T05:39:22;3.17;;;2.27;;
34585;SDS011;20816;50.950;11.108;2023-05-10T05:41:49;4.13;;;1.97;;
34585;SDS011;20816;50.950;11.108;2023-05-10T05:44:15;3.80;;;2.13;;
34585;SDS011;20816;50.950;11.108;2023-05-10T05:46:42;5.93;;;2.13;;
34585;SDS011;20816;50.950;11.108;2023-05-10T05:49:09;2.20;;;1.80;;
34585;SDS011;20816;50.950;11.108;2023-05-10T05:51:36;8.77;;;1.80;;
34585;SDS011;20816;50.950;11.108;2023-05-10T05:54:03;2.70;;;2.00;;
34585;SDS011;20816;50.950;11.108;2023-05-10T05:56:30;3.33;;;1.47;;
34585;SDS011;20816;50.950;11.108;2023-05-10T05:58:57;2.57;;;1.20;;
34585;SDS011;20816;50.950;11.108;2023-05-10T06:01:24;1.93;;;1.20;;
34585;SDS011;20816;50.950;11.108;2023-05-10T06:03:50;1.83;;;1.13;;
34585;SDS011;20816;50.950;11.108;2023-05-10T06:06:18;3.53;;;1.00;;
34585;SDS011;20816;50.950;11.108;2023-05-10T06:08:45;1.63;;;1.33;;
34585;SDS011;20816;50.950;11.108;2023-05-10T06:11:12;1.53;;;1.30;;
34585;SDS011;20816;50.950;11.108;2023-05-10T06:13:39;3.23;;;1.17;;
34585;SDS011;20816;50.950;11.108;2023-05-10T06:16:05;2.00;;;1.40;;
34585;SDS011;20816;50.950;11.108;2023-05-10T06:18:32;1.93;;;1.40;;
34585;SDS011;20816;50.950;11.108;2023-05-10T06:21:00;1.47;;;1.00;;
34585;SDS011;20816;50.950;11.108;2023-05-10T06:23:26;1.13;;;0.90;;
34585;SDS011;20816;50.950;11.108;2023-05-10T06:25:53;3.10;;;1.50;;
34585;SDS011;20816;50.950;11.108;2023-05-10T06:28:20;1.70;;;1.57;;
34585;SDS011;20816;50.950;11.108;2023-05-10T06:30:47;2.07;;;1.30;;
34585;SDS011;20816;50.950;11.108;2023-05-10T06:33:14;1.70;;;1.27;;
34585;SDS011;20816;50.950;11.108;2023-05-10T06:35:42;1.23;;;1.00;;
34585;SDS011;20816;50.950;11.108;2023-05-10T06:38:18;1.30;;;1.20;;
34585;SDS011;20816;50.950;11.108;2023-05-10T06:40:47;1.70;;;1.00;;
34585;SDS011;20816;50.950;11.108;2023-05-10T06:43:14;1.47;;;0.80;;
34585;SDS011;20816;50.950;11.108;2023-05-10T06:45:41;1.20;;;1.00;;
34585;SDS011;20816;50.950;11.108;2023-05-10T06:48:08;1.33;;;0.93;;
34585;SDS011;20816;50.950;11.108;2023-05-10T06:50:35;0.80;;;0.80;;
34585;SDS011;20816;50.950;11.108;2023-05-10T06:53:02;0.93;;;0.80;;
34585;SDS011;20816;50.950;11.108;2023-05-10T06:55:34;1.00;;;0.80;;
34585;SDS011;20816;50.950;11.108;2023-05-10T06:58:01;0.80;;;0.60;;
34585;SDS011;20816;50.950;11.108;2023-05-10T07:00:28;0.80;;;0.70;;
34585;SDS011;20816;50.950;11.108;2023-05-10T07:02:55;0.70;;;0.70;;
34585;SDS011;20816;50.950;11.108;2023-05-10T07:05:22;1.00;;;0.70;;
34585;SDS011;20816;50.950;11.108;2023-05-10T07:07:49;0.63;;;0.60;;
34585;SDS011;20816;50.950;11.108;2023-05-10T07:10:16;0.60;;;0.50;;
34585;SDS011;20816;50.950;11.108;2023-05-10T07:12:43;1.07;;;0.93;;
34585;SDS011;20816;50.950;11.108;2023-05-10T07:15:09;1.57;;;0.80;;
34585;SDS011;20816;50.950;11.108;2023-05-10T07:17:36;0.60;;;0.50;;
34585;SDS011;20816;50.950;11.108;2023-05-10T07:20:03;0.43;;;0.43;;
34585;SDS011;20816;50.950;11.108;2023-05-10T07:22:30;0.50;;;0.43;;
34585;SDS011;20816;50.950;11.108;2023-05-10T07:24:57;1.33;;;0.50;;
34585;SDS011;20816;50.950;11.108;2023-05-10T07:27:25;0.30;;;0.30;;
34585;SDS011;20816;50.950;11.108;2023-05-10T07:29:52;2.73;;;0.70;;
34585;SDS011;20816;50.950;11.108;2023-05-10T07:32:18;0.53;;;0.37;;
34585;SDS011;20816;50.950;11.108;2023-05-10T07:34:45;2.17;;;0.83;;
34585;SDS011;20816;50.950;11.108;2023-05-10T07:37:12;0.83;;;0.70;;
34585;SDS011;20816;50.950;11.108;2023-05-10T07:39:41;3.13;;;0.53;;
34585;SDS011;20816;50.950;11.108;2023-05-10T07:42:08;0.30;;;0.30;;
34585;SDS011;20816;50.950;11.108;2023-05-10T07:44:34;0.40;;;0.30;;
34585;SDS011;20816;50.950;11.108;2023-05-10T07:47:01;1.13;;;0.20;;
34585;SDS011;20816;50.950;11.108;2023-05-10T07:49:28;0.27;;;0.27;;
34585;SDS011;20816;50.950;11.108;2023-05-10T07:51:55;0.93;;;0.43;;
34585;SDS011;20816;50.950;11.108;2023-05-10T07:54:22;0.30;;;0.30;;
34585;SDS011;20816;50.950;11.108;2023-05-10T07:56:49;0.20;;;0.20;;
34585;SDS011;20816;50.950;11.108;2023-05-10T07:59:17;0.23;;;0.20;;
34585;SDS011;20816;50.950;11.108;2023-05-10T08:01:44;0.27;;;0.20;;
34585;SDS011;20816;50.950;11.108;2023-05-10T08:04:14;0.38;;;0.28;;
34585;SDS011;20816;50.950;11.108;2023-05-10T08:06:41;0.43;;;0.30;;
34585;SDS011;20816;50.950;11.108;2023-05-10T08:09:08;0.25;;;0.10;;
34585;SDS011;20816;50.950;11.108;2023-05-10T08:11:35;0.10;;;0.10;;
34585;SDS011;20816;50.950;11.108;2023-05-10T08:14:02;0.20;;;0.20;;
34585;SDS011;20816;50.950;11.108;2023-05-10T08:16:29;0.20;;;0.20;;
34585;SDS011;20816;50.950;11.108;2023-05-10T08:18:56;0.20;;;0.20;;
34585;SDS011;20816;50.950;11.108;2023-05-10T08:21:22;0.17;;;0.10;;
34585;SDS011;20816;50.950;11.108;2023-05-10T08:23:49;0.20;;;0.20;;
34585;SDS011;20816;50.950;11.108;2023-05-10T08:26:16;0.35;;;0.30;;
34585;SDS011;20816;50.950;11.108;2023-05-10T08:28:43;0.30;;;0.10;;
34585;SDS011;20816;50.950;11.108;2023-05-10T08:31:10;0.28;;;0.25;;
34585;SDS011;20816;50.950;11.108;2023-05-10T08:33:37;0.30;;;0.30;;
34585;SDS011;20816;50.950;11.108;2023-05-10T08:36:04;1.10;;;0.20;;
34585;SDS011;20816;50.950;11.108;2023-05-10T08:38:31;0.50;;;0.20;;
34585;SDS011;20816;50.950;11.108;2023-05-10T08:40:58;0.20;;;0.20;;
34585;SDS011;20816;50.950;11.108;2023-05-10T08:43:26;0.93;;;0.22;;
34585;SDS011;20816;50.950;11.108;2023-05-10T08:45:55;0.52;;;0.20;;
34585;SDS011;20816;50.950;11.108;2023-05-10T08:48:25;0.60;;;0.30;;
34585;SDS011;20816;50.950;11.108;2023-05-10T08:50:55;0.30;;;0.20;;
34585;SDS011;20816;50.950;11.108;2023-05-10T08:53:24;0.85;;;0.20;;
34585;SDS011;20816;50.950;11.108;2023-05-10T08:55:53;0.30;;;0.10;;
34585;SDS011;20816;50.950;11.108;2023-05-10T08:58:20;0.20;;;0.20;;
34585;SDS011;20816;50.950;11.108;2023-05-10T09:00:48;0.40;;;0.30;;
34585;SDS011;20816;50.950;11.108;2023-05-10T09:03:22;0.10;;;0.10;;
34585;SDS011;20816;50.950;11.108;2023-05-10T09:05:49;0.10;;;0.10;;
34585;SDS011;20816;50.950;11.108;2023-05-10T09:08:16;0.13;;;0.10;;
34585;SDS011;20816;50.950;11.108;2023-05-10T09:10:44;0.10;;;0.10;;
34585;SDS011;20816;50.950;11.108;2023-05-10T09:13:14;0.10;;;0.10;;
34585;SDS011;20816;50.950;11.108;2023-05-10T09:15:43;0.15;;;0.10;;
34585;SDS011;20816;50.950;11.108;2023-05-10T09:18:11;0.10;;;0.10;;
34585;SDS011;20816;50.950;11.108;2023-05-10T09:20:39;0.10;;;0.10;;
34585;SDS011;20816;50.950;11.108;2023-05-10T09:23:07;0.10;;;0.10;;
34585;SDS011;20816;50.950;11.108;2023-05-10T09:25:34;0.08;;;0.08;;
34585;SDS011;20816;50.950;11.108;2023-05-10T09:28:01;0.20;;;0.20;;
34585;SDS011;20816;50.950;11.108;2023-05-10T09:30:32;0.10;;;0.10;;
34585;SDS011;20816;50.950;11.108;2023-05-10T09:32:59;0.10;;;0.10;;
34585;SDS011;20816;50.950;11.108;2023-05-10T09:35:27;0.10;;;0.10;;
34585;SDS011;20816;50.950;11.108;2023-05-10T09:37:56;0.20;;;0.20;;
34585;SDS011;20816;50.950;11.108;2023-05-10T09:40:26;0.55;;;0.17;;
34585;SDS011;20816;50.950;11.108;2023-05-10T09:42:54;0.10;;;0.10;;
34585;SDS011;20816;50.950;11.108;2023-05-10T09:45:25;0.10;;;0.10;;
34585;SDS011;20816;50.950;11.108;2023-05-10T09:47:54;0.00;;;0.00;;
34585;SDS011;20816;50.950;11.108;2023-05-10T09:50:21;0.10;;;0.10;;
34585;SDS011;20816;50.950;11.108;2023-05-10T09:52:50;0.65;;;0.20;;
34585;SDS011;20816;50.950;11.108;2023-05-10T09:58:02;0.17;;;0.15;;
34585;SDS011;20816;50.950;11.108;2023-05-10T10:00:33;0.17;;;0.17;;
34585;SDS011;20816;50.950;11.108;2023-05-10T10:03:02;0.10;;;0.10;;
34585;SDS011;20816;50.950;11.108;2023-05-10T10:05:30;0.25;;;0.10;;
34585;SDS011;20816;50.950;11.108;2023-05-10T10:07:58;0.67;;;0.13;;
34585;SDS011;20816;50.950;11.108;2023-05-10T10:10:27;0.10;;;0.10;;
34585;SDS011;20816;50.950;11.108;2023-05-10T10:12:55;0.10;;;0.10;;
34585;SDS011;20816;50.950;11.108;2023-05-10T10:15:22;0.10;;;0.10;;
34585;SDS011;20816;50.950;11.108;2023-05-10T10:17:50;0.37;;;0.10;;
34585;SDS011;20816;50.950;11.108;2023-05-10T10:20:18;0.10;;;0.10;;
34585;SDS011;20816;50.950;11.108;2023-05-10T10:22:47;0.20;;;0.20;;
34585;SDS011;20816;50.950;11.108;2023-05-10T10:25:15;0.38;;;0.20;;
34585;SDS011;20816;50.950;11.108;2023-05-10T10:30:27;0.20;;;0.20;;
34585;SDS011;20816;50.950;11.108;2023-05-10T10:36:00;0.30;;;0.30;;
34585;SDS011;20816;50.950;11.108;2023-05-10T10:41:27;0.10;;;0.10;;
34585;SDS011;20816;50.950;11.108;2023-05-10T10:55:00;0.10;;;0.10;;
34585;SDS011;20816;50.950;11.108;2023-05-10T11:02:54;0.30;;;0.30;;
34585;SDS011;20816;50.950;11.108;2023-05-10T11:10:49;0.20;;;0.20;;
34585;SDS011;20816;50.950;11.108;2023-05-10T11:13:43;0.10;;;0.10;;
34585;SDS011;20816;50.950;11.108;2023-05-10T11:21:32;0.40;;;0.20;;
34585;SDS011;20816;50.950;11.108;2023-05-10T11:24:01;0.60;;;0.30;;
34585;SDS011;20816;50.950;11.108;2023-05-10T11:26:33;0.60;;;0.30;;
34585;SDS011;20816;50.950;11.108;2023-05-10T11:29:01;0.15;;;0.15;;
34585;SDS011;20816;50.950;11.108;2023-05-10T11:31:29;0.30;;;0.20;;
34585;SDS011;20816;50.950;11.108;2023-05-10T11:33:57;0.22;;;0.20;;
34585;SDS011;20816;50.950;11.108;2023-05-10T11:36:26;0.20;;;0.20;;
34585;SDS011;20816;50.950;11.108;2023-05-10T11:38:55;0.30;;;0.20;;
34585;SDS011;20816;50.950;11.108;2023-05-10T11:41:23;0.38;;;0.32;;
34585;SDS011;20816;50.950;11.108;2023-05-10T11:43:51;0.20;;;0.20;;
34585;SDS011;20816;50.950;11.108;2023-05-10T11:46:22;0.20;;;0.20;;
34585;SDS011;20816;50.950;11.108;2023-05-10T11:48:51;0.55;;;0.35;;
34585;SDS011;20816;50.950;11.108;2023-05-10T11:51:24;0.80;;;0.60;;
34585;SDS011;20816;50.950;11.108;2023-05-10T11:53:55;1.95;;;0.68;;
34585;SDS011;20816;50.950;11.108;2023-05-10T11:56:23;2.25;;;0.60;;
34585;SDS011;20816;50.950;11.108;2023-05-10T11:58:53;0.40;;;0.30;;
34585;SDS011;20816;50.950;11.108;2023-05-10T12:01:24;0.63;;;0.38;;
34585;SDS011;20816;50.950;11.108;2023-05-10T12:03:53;0.30;;;0.30;;
34585;SDS011;20816;50.950;11.108;2023-05-10T12:06:21;0.20;;;0.20;;
34585;SDS011;20816;50.950;11.108;2023-05-10T12:08:51;0.20;;;0.20;;
34585;SDS011;20816;50.950;11.108;2023-05-10T12:11:20;3.40;;;0.50;;
34585;SDS011;20816;50.950;11.108;2023-05-10T12:13:50;0.20;;;0.20;;
34585;SDS011;20816;50.950;11.108;2023-05-10T12:16:18;0.25;;;0.20;;
34585;SDS011;20816;50.950;11.108;2023-05-10T12:18:50;0.63;;;0.10;;
34585;SDS011;20816;50.950;11.108;2023-05-10T12:21:18;0.63;;;0.20;;
34585;SDS011;20816;50.950;11.108;2023-05-10T12:23:46;1.25;;;0.95;;
34585;SDS011;20816;50.950;11.108;2023-05-10T12:26:16;1.30;;;1.20;;
34585;SDS011;20816;50.950;11.108;2023-05-10T12:28:42;0.55;;;0.17;;
34585;SDS011;20816;50.950;11.108;2023-05-10T12:31:10;0.20;;;0.20;;
34585;SDS011;20816;50.950;11.108;2023-05-10T12:33:41;0.28;;;0.20;;
34585;SDS011;20816;50.950;11.108;2023-05-10T12:36:09;0.30;;;0.30;;
34585;SDS011;20816;50.950;11.108;2023-05-10T12:38:41;0.68;;;0.20;;
34585;SDS011;20816;50.950;11.108;2023-05-10T12:41:10;0.10;;;0.10;;
34585;SDS011;20816;50.950;11.108;2023-05-10T12:43:38;0.73;;;0.30;;
34585;SDS011;20816;50.950;11.108;2023-05-10T12:46:12;0.25;;;0.20;;
34585;SDS011;20816;50.950;11.108;2023-05-10T12:48:42;0.35;;;0.20;;
34585;SDS011;20816;50.950;11.108;2023-05-10T12:51:09;0.20;;;0.20;;
34585;SDS011;20816;50.950;11.108;2023-05-10T12:53:38;0.30;;;0.25;;
34585;SDS011;20816;50.950;11.108;2023-05-10T12:56:09;0.40;;;0.40;;
34585;SDS011;20816;50.950;11.108;2023-05-10T12:58:36;0.20;;;0.20;;
34585;SDS011;20816;50.950;11.108;2023-05-10T13:01:04;0.10;;;0.10;;
34585;SDS011;20816;50.950;11.108;2023-05-10T13:03:31;0.40;;;0.40;;
34585;SDS011;20816;50.950;11.108;2023-05-10T13:05:58;0.38;;;0.38;;
34585;SDS011;20816;50.950;11.108;2023-05-10T13:08:25;0.20;;;0.20;;
34585;SDS011;20816;50.950;11.108;2023-05-10T13:10:52;0.20;;;0.20;;
34585;SDS011;20816;50.950;11.108;2023-05-10T13:13:19;0.10;;;0.10;;
34585;SDS011;20816;50.950;11.108;2023-05-10T13:15:49;0.10;;;0.10;;
34585;SDS011;20816;50.950;11.108;2023-05-10T13:18:16;0.10;;;0.10;;
34585;SDS011;20816;50.950;11.108;2023-05-10T13:20:43;0.43;;;0.20;;
34585;SDS011;20816;50.950;11.108;2023-05-10T13:23:10;0.10;;;0.10;;
34585;SDS011;20816;50.950;11.108;2023-05-10T13:25:37;0.30;;;0.20;;
34585;SDS011;20816;50.950;11.108;2023-05-10T13:28:04;0.10;;;0.10;;
34585;SDS011;20816;50.950;11.108;2023-05-10T13:30:31;0.10;;;0.10;;
34585;SDS011;20816;50.950;11.108;2023-05-10T13:32:58;0.55;;;0.28;;
34585;SDS011;20816;50.950;11.108;2023-05-10T13:35:25;0.32;;;0.20;;
34585;SDS011;20816;50.950;11.108;2023-05-10T13:37:52;0.22;;;0.20;;
34585;SDS011;20816;50.950;11.108;2023-05-10T13:40:19;0.30;;;0.20;;
34585;SDS011;20816;50.950;11.108;2023-05-10T13:42:46;0.15;;;0.10;;
34585;SDS011;20816;50.950;11.108;2023-05-10T13:45:13;0.25;;;0.22;;
34585;SDS011;20816;50.950;11.108;2023-05-10T13:47:41;0.52;;;0.38;;
34585;SDS011;20816;50.950;11.108;2023-05-10T13:50:07;0.22;;;0.22;;
34585;SDS011;20816;50.950;11.108;2023-05-10T13:52:34;1.42;;;0.20;;
34585;SDS011;20816;50.950;11.108;2023-05-10T13:55:01;0.68;;;0.30;;
34585;SDS011;20816;50.950;11.108;2023-05-10T13:57:29;0.50;;;0.30;;
34585;SDS011;20816;50.950;11.108;2023-05-10T13:59:56;0.30;;;0.30;;
34585;SDS011;20816;50.950;11.108;2023-05-10T14:02:23;0.63;;;0.35;;
34585;SDS011;20816;50.950;11.108;2023-05-10T14:04:51;0.43;;;0.20;;
34585;SDS011;20816;50.950;11.108;2023-05-10T14:07:20;2.17;;;0.30;;
34585;SDS011;20816;50.950;11.108;2023-05-10T14:09:48;0.82;;;0.30;;
34585;SDS011;20816;50.950;11.108;2023-05-10T14:12:15;0.85;;;0.60;;
34585;SDS011;20816;50.950;11.108;2023-05-10T14:14:42;0.20;;;0.17;;
34585;SDS011;20816;50.950;11.108;2023-05-10T14:17:09;0.65;;;0.22;;
34585;SDS011;20816;50.950;11.108;2023-05-10T14:19:37;0.15;;;0.15;;
34585;SDS011;20816;50.950;11.108;2023-05-10T14:22:05;0.73;;;0.20;;
34585;SDS011;20816;50.950;11.108;2023-05-10T14:24:32;0.28;;;0.20;;
34585;SDS011;20816;50.950;11.108;2023-05-10T14:26:59;0.85;;;0.40;;
34585;SDS011;20816;50.950;11.108;2023-05-10T14:29:26;0.35;;;0.20;;
34585;SDS011;20816;50.950;11.108;2023-05-10T14:31:53;0.10;;;0.10;;
34585;SDS011;20816;50.950;11.108;2023-05-10T14:34:20;0.13;;;0.13;;
34585;SDS011;20816;50.950;11.108;2023-05-10T14:36:47;1.45;;;0.20;;
34585;SDS011;20816;50.950;11.108;2023-05-10T14:39:13;0.38;;;0.20;;
34585;SDS011;20816;50.950;11.108;2023-05-10T14:41:40;0.20;;;0.20;;
34585;SDS011;20816;50.950;11.108;2023-05-10T14:44:09;1.23;;;0.20;;
34585;SDS011;20816;50.950;11.108;2023-05-10T14:46:36;0.88;;;0.38;;
34585;SDS011;20816;50.950;11.108;2023-05-10T14:49:03;0.22;;;0.20;;
34585;SDS011;20816;50.950;11.108;2023-05-10T14:51:30;0.30;;;0.30;;
34585;SDS011;20816;50.950;11.108;2023-05-10T14:53:58;0.45;;;0.20;;
34585;SDS011;20816;50.950;11.108;2023-05-10T14:56:25;0.35;;;0.35;;
34585;SDS011;20816;50.950;11.108;2023-05-10T14:58:52;0.20;;;0.20;;
34585;SDS011;20816;50.950;11.108;2023-05-10T15:01:19;0.20;;;0.20;;
34585;SDS011;20816;50.950;11.108;2023-05-10T15:03:47;1.25;;;0.40;;
34585;SDS011;20816;50.950;11.108;2023-05-10T15:06:20;0.30;;;0.20;;
34585;SDS011;20816;50.950;11.108;2023-05-10T15:08:51;0.57;;;0.10;;
34585;SDS011;20816;50.950;11.108;2023-05-10T15:11:18;0.10;;;0.10;;
34585;SDS011;20816;50.950;11.108;2023-05-10T15:13:45;1.45;;;0.20;;
34585;SDS011;20816;50.950;11.108;2023-05-10T15:16:12;1.13;;;0.20;;
34585;SDS011;20816;50.950;11.108;2023-05-10T15:18:39;0.40;;;0.25;;
34585;SDS011;20816;50.950;11.108;2023-05-10T15:21:07;0.55;;;0.47;;
34585;SDS011;20816;50.950;11.108;2023-05-10T15:23:34;0.28;;;0.25;;
34585;SDS011;20816;50.950;11.108;2023-05-10T15:26:01;0.68;;;0.30;;
34585;SDS011;20816;50.950;11.108;2023-05-10T15:28:29;0.40;;;0.20;;
34585;SDS011;20816;50.950;11.108;2023-05-10T15:30:57;0.95;;;0.25;;